createdAt,value
2023-04-20T00:02:06.077Z,18.58
2023-04-20T00:04:32.586Z,18.25
2023-04-20T00:06:59.325Z,17.10
2023-04-20T00:09:25.708Z,18.05
2023-04-20T00:11:52.213Z,16.40
2023-04-20T00:14:18.617Z,16.67
2023-04-20T00:16:45.293Z,18.85
2023-04-20T00:19:11.789Z,18.42
2023-04-20T00:21:38.368Z,16.23
2023-04-20T00:24:04.814Z,18.30
2023-04-20T00:26:31.731Z,18.35
2023-04-20T00:28:58.105Z,16.30
2023-04-20T00:31:24.573Z,17.10
2023-04-20T00:33:51.562Z,17.70
2023-04-20T00:36:17.956Z,17.33
2023-04-20T00:38:44.434Z,18.35
2023-04-20T00:41:11.140Z,18.15
2023-04-20T00:43:37.899Z,16.45
2023-04-20T00:46:04.284Z,17.10
2023-04-20T00:48:30.825Z,17.10
2023-04-20T00:50:57.145Z,14.98
2023-04-20T00:53:23.552Z,16.77
2023-04-20T00:55:50.124Z,18.40
2023-04-20T00:58:16.659Z,16.92
2023-04-20T01:00:43.045Z,17.27
2023-04-20T01:03:10.379Z,17.85
2023-04-20T01:05:36.881Z,18.23
2023-04-20T01:08:03.553Z,18.00
2023-04-20T01:10:29.895Z,16.27
2023-04-20T01:12:58.105Z,16.20
2023-04-20T01:15:25.502Z,18.13
2023-04-20T01:17:52.547Z,17.20
2023-04-20T01:20:19.327Z,16.80
2023-04-20T01:22:45.703Z,17.58
2023-04-20T01:25:12.393Z,17.05
2023-04-20T01:27:39.459Z,16.95
2023-04-20T01:30:05.814Z,16.75
2023-04-20T01:32:32.523Z,17.25
2023-04-20T01:34:58.972Z,17.63
2023-04-20T01:37:25.328Z,16.30
2023-04-20T01:39:51.766Z,18.23
2023-04-20T01:42:18.373Z,19.60
2023-04-20T01:44:44.809Z,17.23
2023-04-20T01:47:11.437Z,16.83
2023-04-20T01:49:38.082Z,18.42
2023-04-20T01:52:04.504Z,17.33
2023-04-20T01:54:31.222Z,17.52
2023-04-20T01:56:57.903Z,17.70
2023-04-20T01:59:24.204Z,15.70
2023-04-20T02:01:50.689Z,16.95
2023-04-20T02:04:17.604Z,16.95
2023-04-20T02:06:44.159Z,19.33
2023-04-20T02:09:10.896Z,16.55
2023-04-20T02:11:37.390Z,16.58
2023-04-20T02:14:03.715Z,17.33
2023-04-20T02:16:30.135Z,16.75
2023-04-20T02:18:56.520Z,17.45
2023-04-20T02:21:22.843Z,17.25
2023-04-20T02:23:49.388Z,18.90
2023-04-20T02:26:15.772Z,16.98
2023-04-20T02:28:42.279Z,17.00
2023-04-20T02:31:08.756Z,17.48
2023-04-20T02:33:35.312Z,16.35
2023-04-20T02:36:01.707Z,15.93
2023-04-20T02:38:28.081Z,16.90
2023-04-20T02:40:54.443Z,16.83
2023-04-20T02:43:21.408Z,18.30
2023-04-20T02:45:48.056Z,16.67
2023-04-20T02:48:14.428Z,18.02
2023-04-20T02:50:40.823Z,18.20
2023-04-20T02:53:07.585Z,18.27
2023-04-20T02:55:34.153Z,17.02
2023-04-20T02:58:00.570Z,16.27
2023-04-20T03:00:27.332Z,17.65
2023-04-20T03:02:53.807Z,16.52
2023-04-20T03:05:20.199Z,17.10
2023-04-20T03:07:46.600Z,16.20
2023-04-20T03:10:13.241Z,15.77
2023-04-20T03:12:39.550Z,16.42
2023-04-20T03:15:06.072Z,17.95
2023-04-20T03:17:32.763Z,15.63
2023-04-20T03:19:59.300Z,16.52
2023-04-20T03:22:25.647Z,16.33
2023-04-20T03:24:53.359Z,17.77
2023-04-20T03:27:20.031Z,15.32
2023-04-20T03:29:46.396Z,15.18
2023-04-20T03:32:12.769Z,16.55
2023-04-20T03:34:39.402Z,17.17
2023-04-20T03:37:05.712Z,15.27
2023-04-20T03:39:32.283Z,17.33
2023-04-20T03:41:58.628Z,16.80
2023-04-20T03:44:25.089Z,16.77
2023-04-20T03:46:51.674Z,16.02
2023-04-20T03:49:18.175Z,16.00
2023-04-20T03:51:44.822Z,15.82
2023-04-20T03:54:11.249Z,16.50
2023-04-20T03:56:37.643Z,16.65
2023-04-20T03:59:04.000Z,17.08
2023-04-20T04:01:30.416Z,16.45
2023-04-20T04:03:57.170Z,17.63
2023-04-20T04:06:23.685Z,17.50
2023-04-20T04:08:50.220Z,17.02
2023-04-20T04:11:17.035Z,16.27
2023-04-20T04:13:43.577Z,17.90
2023-04-20T04:16:10.191Z,18.40
2023-04-20T04:18:36.853Z,17.90
2023-04-20T04:21:03.246Z,15.98
2023-04-20T04:23:29.609Z,17.33
2023-04-20T04:25:55.948Z,17.55
2023-04-20T04:28:22.303Z,17.55
2023-04-20T04:30:48.592Z,16.75
2023-04-20T04:33:14.917Z,18.30
2023-04-20T04:35:41.320Z,17.00
2023-04-20T04:38:08.052Z,17.00
2023-04-20T04:40:34.451Z,18.65
2023-04-20T04:43:00.739Z,17.13
2023-04-20T04:45:27.250Z,17.60
2023-04-20T04:47:53.747Z,18.73
2023-04-20T04:50:20.403Z,18.27
2023-04-20T04:52:46.803Z,17.65
2023-04-20T04:55:15.019Z,18.33
2023-04-20T04:57:42.802Z,17.05
2023-04-20T05:00:09.164Z,16.80
2023-04-20T05:02:36.342Z,17.35
2023-04-20T05:05:02.933Z,19.30
2023-04-20T05:07:29.298Z,17.63
2023-04-20T05:09:55.944Z,17.02
2023-04-20T05:12:22.395Z,19.17
2023-04-20T05:14:48.792Z,19.63
2023-04-20T05:17:15.653Z,18.70
2023-04-20T05:19:42.034Z,19.33
2023-04-20T05:22:08.457Z,18.27
2023-04-20T05:24:34.836Z,17.35
2023-04-20T05:27:01.890Z,18.63
2023-04-20T05:29:28.384Z,18.25
2023-04-20T05:31:54.947Z,18.88
2023-04-20T05:34:21.596Z,21.33
2023-04-20T05:36:48.309Z,23.30
2023-04-20T05:39:14.844Z,18.88
2023-04-20T05:41:41.178Z,21.38
2023-04-20T05:44:07.493Z,19.25
2023-04-20T05:46:34.112Z,19.17
2023-04-20T05:49:00.591Z,21.33
2023-04-20T05:51:27.081Z,20.13
2023-04-20T05:53:53.647Z,21.10
2023-04-20T05:56:20.135Z,23.10
2023-04-20T05:58:46.515Z,20.25
2023-04-20T06:01:13.140Z,23.83
2023-04-20T06:03:39.608Z,19.98
2023-04-20T06:06:06.144Z,22.77
2023-04-20T06:08:32.665Z,21.10
2023-04-20T06:10:59.382Z,24.50
2023-04-20T06:13:25.749Z,20.58
2023-04-20T06:15:52.399Z,23.75
2023-04-20T06:18:19.354Z,23.75
2023-04-20T06:20:45.757Z,19.35
2023-04-20T06:23:12.247Z,19.35
2023-04-20T06:25:38.612Z,23.50
2023-04-20T06:28:05.051Z,23.30
2023-04-20T06:30:31.423Z,22.95
2023-04-20T06:32:59.245Z,24.15
2023-04-20T06:35:25.832Z,20.52
2023-04-20T06:37:52.192Z,21.42
2023-04-20T06:40:18.526Z,21.42
2023-04-20T06:42:45.109Z,23.65
2023-04-20T06:45:11.418Z,23.02
2023-04-20T06:47:38.238Z,24.23
2023-04-20T06:50:04.769Z,21.92
2023-04-20T06:52:31.504Z,25.15
2023-04-20T06:54:57.899Z,24.48
2023-04-20T06:57:24.270Z,25.88
2023-04-20T06:59:50.640Z,23.27
2023-04-20T07:02:17.515Z,26.30
2023-04-20T07:04:44.327Z,23.45
2023-04-20T07:07:10.809Z,23.65
2023-04-20T07:09:37.120Z,24.20
2023-04-20T07:12:03.472Z,27.20
2023-04-20T07:14:29.851Z,24.40
2023-04-20T07:16:56.278Z,26.10
2023-04-20T07:19:23.240Z,26.23
2023-04-20T07:21:49.671Z,24.23
2023-04-20T07:24:16.163Z,23.52
2023-04-20T07:26:42.738Z,25.15
2023-04-20T07:29:09.201Z,24.25
2023-04-20T07:31:35.794Z,22.90
2023-04-20T07:34:02.218Z,26.83
2023-04-20T07:36:29.052Z,25.67
2023-04-20T07:38:55.450Z,24.55
2023-04-20T07:41:21.897Z,24.00
2023-04-20T07:43:48.272Z,26.13
2023-04-20T07:46:14.659Z,24.52
2023-04-20T07:48:41.186Z,23.58
2023-04-20T07:51:07.740Z,26.65
2023-04-20T07:53:34.226Z,33.90
2023-04-20T07:56:00.564Z,26.10
2023-04-20T07:58:27.033Z,28.63
2023-04-20T08:00:53.485Z,30.42
2023-04-20T08:03:20.048Z,27.65
2023-04-20T08:05:46.631Z,27.50
2023-04-20T08:08:13.147Z,26.65
2023-04-20T08:10:39.599Z,28.15
2023-04-20T08:13:06.174Z,25.67
2023-04-20T08:15:33.109Z,27.00
2023-04-20T08:17:59.688Z,25.20
2023-04-20T08:20:26.230Z,29.02
2023-04-20T08:22:52.826Z,25.95
2023-04-20T08:25:19.589Z,26.13
2023-04-20T08:27:46.124Z,28.65
2023-04-20T08:30:12.488Z,27.23
2023-04-20T08:32:39.356Z,29.80
2023-04-20T08:35:06.181Z,32.50
2023-04-20T08:37:33.150Z,28.70
2023-04-20T08:39:59.634Z,28.50
2023-04-20T08:42:26.110Z,30.58
2023-04-20T08:44:52.601Z,30.02
2023-04-20T08:47:19.097Z,30.02
2023-04-20T08:49:45.499Z,27.13
2023-04-20T08:52:12.203Z,29.08
2023-04-20T08:54:45.873Z,30.23
2023-04-20T08:57:15.948Z,32.17
2023-04-20T08:59:42.629Z,31.42
2023-04-20T09:02:09.048Z,32.35
2023-04-20T09:04:35.747Z,32.47
2023-04-20T09:07:02.195Z,29.95
2023-04-20T09:09:28.592Z,33.00
2023-04-20T09:11:55.175Z,31.15
2023-04-20T09:14:21.614Z,32.15
2023-04-20T09:16:48.400Z,32.65
2023-04-20T09:19:14.852Z,30.90
2023-04-20T09:21:41.490Z,34.90
2023-04-20T09:24:07.870Z,31.85
2023-04-20T09:26:34.270Z,33.08
2023-04-20T09:29:00.737Z,33.17
2023-04-20T09:31:27.163Z,35.65
2023-04-20T09:33:53.788Z,33.53
2023-04-20T09:36:20.320Z,33.03
2023-04-20T09:38:46.680Z,32.97
2023-04-20T09:41:13.383Z,37.50
2023-04-20T09:43:40.046Z,33.70
2023-04-20T09:46:06.546Z,33.80
2023-04-20T09:48:32.961Z,33.03
2023-04-20T09:50:59.323Z,31.70
2023-04-20T09:53:25.694Z,32.17
2023-04-20T09:55:52.218Z,34.05
2023-04-20T09:58:18.698Z,33.30
2023-04-20T10:00:45.343Z,34.90
2023-04-20T10:03:11.897Z,34.58
2023-04-20T10:05:38.293Z,37.83
2023-04-20T10:08:04.865Z,38.97
2023-04-20T10:10:31.331Z,38.22
2023-04-20T10:12:57.619Z,43.50
2023-04-20T10:15:24.065Z,39.97
2023-04-20T10:17:50.945Z,39.47
2023-04-20T10:20:17.292Z,43.72
2023-04-20T10:22:43.986Z,57.67
2023-04-20T10:25:10.331Z,79.03
2023-04-20T10:27:37.079Z,82.85
2023-04-20T10:30:03.455Z,69.05
2023-04-20T10:32:29.927Z,68.82
2023-04-20T10:34:56.360Z,75.00
2023-04-20T10:37:22.701Z,66.75
2023-04-20T10:39:49.107Z,67.28
2023-04-20T10:42:17.536Z,65.47
2023-04-20T10:44:44.622Z,66.43
2023-04-20T10:47:11.663Z,70.32
2023-04-20T10:49:38.024Z,62.20
2023-04-20T10:52:04.474Z,62.78
2023-04-20T10:54:30.828Z,62.47
2023-04-20T10:56:57.300Z,58.58
2023-04-20T10:59:23.684Z,59.20
2023-04-20T11:01:50.466Z,61.05
2023-04-20T11:04:18.790Z,59.95
2023-04-20T11:06:46.083Z,60.88
2023-04-20T11:09:12.585Z,58.55
2023-04-20T11:11:39.046Z,57.03
2023-04-20T11:14:05.667Z,53.38
2023-04-20T11:16:44.189Z,56.92
2023-04-20T11:19:15.954Z,55.85
2023-04-20T11:21:42.685Z,51.72
2023-04-20T11:24:09.261Z,48.45
2023-04-20T11:26:35.741Z,48.70
2023-04-20T11:29:02.610Z,46.20
2023-04-20T11:31:29.016Z,42.28
2023-04-20T11:33:55.399Z,40.05
2023-04-20T11:36:22.004Z,43.70
2023-04-20T11:38:48.360Z,46.67
2023-04-20T11:41:14.833Z,46.08
2023-04-20T11:43:41.214Z,48.05
2023-04-20T11:46:07.982Z,46.78
2023-04-20T11:48:34.434Z,42.60
2023-04-20T11:51:00.949Z,45.92
2023-04-20T11:53:27.814Z,46.17
2023-04-20T11:55:54.276Z,50.72
2023-04-20T11:58:20.987Z,43.10
2023-04-20T12:00:47.388Z,43.78
2023-04-20T12:03:13.978Z,42.03
2023-04-20T12:05:40.498Z,39.75
2023-04-20T12:08:07.121Z,39.55
2023-04-20T12:10:33.571Z,37.97
2023-04-20T12:13:00.105Z,34.95
2023-04-20T12:15:26.761Z,40.25
2023-04-20T12:17:53.215Z,40.03
2023-04-20T12:20:19.549Z,35.13
2023-04-20T12:22:45.963Z,37.10
2023-04-20T12:25:12.626Z,38.78
2023-04-20T12:27:39.067Z,33.72
2023-04-20T12:30:05.413Z,36.92
2023-04-20T12:32:32.102Z,31.67
2023-04-20T12:34:58.635Z,36.75
2023-04-20T12:37:24.925Z,33.78
2023-04-20T12:39:51.402Z,32.63
2023-04-20T12:42:17.977Z,33.88
2023-04-20T12:44:44.495Z,28.80
2023-04-20T12:47:11.324Z,30.70
2023-04-20T12:49:37.753Z,29.63
2023-04-20T12:52:05.717Z,29.85
2023-04-20T12:54:34.083Z,26.67
2023-04-20T12:57:00.418Z,31.55
2023-04-20T12:59:26.832Z,29.02
2023-04-20T13:01:53.236Z,28.83
2023-04-20T13:04:20.006Z,29.10
2023-04-20T13:06:46.796Z,28.10
2023-04-20T13:09:13.698Z,24.75
2023-04-20T13:11:40.204Z,24.40
2023-04-20T13:14:06.634Z,28.45
2023-04-20T13:16:32.997Z,26.10
2023-04-20T13:18:59.837Z,24.40
2023-04-20T13:21:26.430Z,23.85
2023-04-20T13:23:54.726Z,26.05
2023-04-20T13:26:22.489Z,22.48
2023-04-20T13:28:48.898Z,23.58
2023-04-20T13:31:15.284Z,25.08
2023-04-20T13:33:41.735Z,22.35
2023-04-20T13:36:08.297Z,23.65
2023-04-20T13:38:34.708Z,23.20
2023-04-20T13:41:01.072Z,24.42
2023-04-20T13:43:27.737Z,22.58
2023-04-20T13:45:54.366Z,22.13
2023-04-20T13:48:21.014Z,22.85
2023-04-20T13:50:47.820Z,22.83
2023-04-20T13:53:14.266Z,22.35
2023-04-20T13:55:40.883Z,22.00
2023-04-20T13:58:07.378Z,22.08
2023-04-20T14:00:34.860Z,23.98
2023-04-20T14:03:01.796Z,20.45
2023-04-20T14:05:28.689Z,20.30
2023-04-20T14:07:55.332Z,20.10
2023-04-20T14:10:21.694Z,23.00
2023-04-20T14:12:48.346Z,21.80
2023-04-20T14:15:14.966Z,22.73
2023-04-20T14:17:41.341Z,22.95
2023-04-20T14:20:07.704Z,19.23
2023-04-20T14:22:34.075Z,20.10
2023-04-20T14:25:00.405Z,23.40
2023-04-20T14:27:27.184Z,22.08
2023-04-20T14:29:53.633Z,21.58
2023-04-20T14:32:20.651Z,19.77
2023-04-20T14:34:47.030Z,19.83
2023-04-20T14:37:13.882Z,21.63
2023-04-20T14:39:40.215Z,21.08
2023-04-20T14:42:06.670Z,20.52
2023-04-20T14:44:33.322Z,19.83
2023-04-20T14:47:00.017Z,20.55
2023-04-20T14:49:26.761Z,19.80
2023-04-20T14:51:53.153Z,21.15
2023-04-20T14:54:19.792Z,20.77
2023-04-20T14:56:46.285Z,20.92
2023-04-20T14:59:12.748Z,21.23
2023-04-20T15:01:43.420Z,19.17
2023-04-20T15:04:18.079Z,18.60
2023-04-20T15:06:44.828Z,22.73
2023-04-20T15:09:11.243Z,19.35
2023-04-20T15:11:38.101Z,19.23
2023-04-20T15:14:04.670Z,20.25
2023-04-20T15:16:31.460Z,19.35
2023-04-20T15:18:58.017Z,20.73
2023-04-20T15:21:24.515Z,19.23
2023-04-20T15:23:51.130Z,22.23
2023-04-20T15:26:17.616Z,18.88
2023-04-20T15:28:43.905Z,20.73
2023-04-20T15:31:10.409Z,21.80
2023-04-20T15:33:36.782Z,18.23
2023-04-20T15:36:03.558Z,18.77
2023-04-20T15:38:29.845Z,20.52
2023-04-20T15:40:56.328Z,19.90
2023-04-20T15:43:22.697Z,17.45
2023-04-20T15:45:49.141Z,18.05
2023-04-20T15:48:15.548Z,17.30
2023-04-20T15:50:42.546Z,18.35
2023-04-20T15:53:08.857Z,17.25
2023-04-20T15:55:35.635Z,17.95
2023-04-20T15:58:02.048Z,17.83
2023-04-20T16:00:28.564Z,18.17
2023-04-20T16:02:55.448Z,17.88
2023-04-20T16:05:21.941Z,18.25
2023-04-20T16:07:48.663Z,19.10
2023-04-20T16:10:15.409Z,17.83
2023-04-20T16:12:41.740Z,18.42
2023-04-20T16:15:08.108Z,17.98
2023-04-20T16:17:35.115Z,19.05
2023-04-20T16:20:01.514Z,18.65
2023-04-20T16:22:28.095Z,16.73
2023-04-20T16:24:54.508Z,17.80
2023-04-20T16:27:20.887Z,18.77
2023-04-20T16:29:47.319Z,17.05
2023-04-20T16:32:13.784Z,17.38
2023-04-20T16:34:40.176Z,17.38
2023-04-20T16:37:06.968Z,17.88
2023-04-20T16:39:33.457Z,20.25
2023-04-20T16:41:59.799Z,19.30
2023-04-20T16:44:26.928Z,18.13
2023-04-20T16:46:53.372Z,18.15
2023-04-20T16:49:19.852Z,15.13
2023-04-20T16:51:46.405Z,16.70
2023-04-20T16:54:13.238Z,15.18
2023-04-20T16:56:39.599Z,15.77
2023-04-20T16:59:05.975Z,16.35
2023-04-20T17:01:32.465Z,15.18
2023-04-20T17:03:59.551Z,16.30
2023-04-20T17:06:26.675Z,15.60
2023-04-20T17:08:53.278Z,14.77
2023-04-20T17:11:20.058Z,15.23
2023-04-20T17:13:46.894Z,15.25
2023-04-20T17:16:13.307Z,15.13
2023-04-20T17:18:41.638Z,17.10
2023-04-20T17:21:08.514Z,15.93
2023-04-20T17:23:34.875Z,15.50
2023-04-20T17:26:01.285Z,16.20
2023-04-20T17:28:27.664Z,15.80
2023-04-20T17:30:54.244Z,15.88
2023-04-20T17:33:20.615Z,15.93
2023-04-20T17:35:47.110Z,466.77
2023-04-20T17:38:13.857Z,391.23
2023-04-20T17:40:40.685Z,209.52
2023-04-20T17:43:07.674Z,178.73
2023-04-20T17:45:34.123Z,169.60
2023-04-20T17:48:01.192Z,159.30
2023-04-20T17:50:27.679Z,176.48
2023-04-20T17:52:54.023Z,360.58
2023-04-20T17:55:20.856Z,330.98
2023-04-20T17:57:47.213Z,295.88
2023-04-20T18:00:13.828Z,277.98
2023-04-20T18:02:40.378Z,275.73
2023-04-20T18:05:07.464Z,249.82
2023-04-20T18:07:34.328Z,239.48
2023-04-20T18:10:01.701Z,207.73
2023-04-20T18:12:28.617Z,186.27
2023-04-20T18:14:55.142Z,176.18
2023-04-20T18:17:21.652Z,161.55
2023-04-20T18:19:48.540Z,198.13
2023-04-20T18:22:14.974Z,348.27
2023-04-20T18:24:41.521Z,317.48
2023-04-20T18:27:08.420Z,291.35
2023-04-20T18:29:34.819Z,272.58
2023-04-20T18:32:01.508Z,259.75
2023-04-20T18:34:28.231Z,251.52
2023-04-20T18:36:55.070Z,243.25
2023-04-20T18:39:21.518Z,237.25
2023-04-20T18:41:48.104Z,224.48
2023-04-20T18:44:14.941Z,212.25
2023-04-20T18:46:41.589Z,212.93
2023-04-20T18:49:08.057Z,273.35
2023-04-20T18:51:34.550Z,371.42
2023-04-20T18:54:01.106Z,364.48
2023-04-20T18:56:27.570Z,358.13
2023-04-20T18:58:54.337Z,348.13
2023-04-20T19:01:21.308Z,331.88
2023-04-20T19:03:48.297Z,324.98
2023-04-20T19:06:14.867Z,309.77
2023-04-20T19:08:41.560Z,296.63
2023-04-20T19:11:08.662Z,288.33
2023-04-20T19:13:35.092Z,279.50
2023-04-20T19:16:01.765Z,275.38
2023-04-20T19:18:28.219Z,267.67
2023-04-20T19:20:54.867Z,259.45
2023-04-20T19:23:21.731Z,253.00
2023-04-20T19:25:48.400Z,244.18
2023-04-20T19:28:15.065Z,237.52
2023-04-20T19:30:42.939Z,236.30
2023-04-20T19:33:09.436Z,228.77
2023-04-20T19:35:35.959Z,219.18
2023-04-20T19:38:02.406Z,445.35
2023-04-20T19:40:29.071Z,496.20
2023-04-20T19:42:56.188Z,429.50
2023-04-20T19:45:22.680Z,412.13
2023-04-20T19:47:49.184Z,402.20
2023-04-20T19:50:15.729Z,387.45
2023-04-20T19:52:42.304Z,373.13
2023-04-20T19:55:08.961Z,367.23
2023-04-20T19:57:35.543Z,360.02
2023-04-20T20:00:02.024Z,348.15
2023-04-20T20:02:29.454Z,332.85
2023-04-20T20:04:56.011Z,328.85
2023-04-20T20:07:23.186Z,480.38
2023-04-20T20:09:50.847Z,566.97
2023-04-20T20:12:17.936Z,484.20
2023-04-20T20:14:44.394Z,459.67
2023-04-20T20:17:10.918Z,447.60
2023-04-20T20:19:38.218Z,434.67
2023-04-20T20:22:04.769Z,428.13
2023-04-20T20:24:31.781Z,415.17
2023-04-20T20:26:58.257Z,399.27
2023-04-20T20:29:24.738Z,393.65
2023-04-20T20:31:51.622Z,377.50
2023-04-20T20:34:18.742Z,371.42
2023-04-20T20:36:45.397Z,363.13
2023-04-20T20:39:11.850Z,354.75
2023-04-20T20:41:38.815Z,349.40
2023-04-20T20:44:05.466Z,493.65
2023-04-20T20:46:32.785Z,594.05
2023-04-20T20:49:00.944Z,518.63
2023-04-20T20:51:28.104Z,497.50
2023-04-20T20:53:54.661Z,475.55
2023-04-20T20:56:21.412Z,474.85
2023-04-20T20:58:48.247Z,457.92
2023-04-20T21:01:15.464Z,450.92
2023-04-20T21:03:42.476Z,436.23
2023-04-20T21:06:09.664Z,626.65
2023-04-20T21:08:36.159Z,588.47
2023-04-20T21:11:03.061Z,569.63
2023-04-20T21:13:29.485Z,556.97
2023-04-20T21:15:56.389Z,541.80
2023-04-20T21:18:22.811Z,532.33
2023-04-20T21:20:49.912Z,518.83
2023-04-20T21:23:16.438Z,502.95
2023-04-20T21:25:42.914Z,505.08
2023-04-20T21:28:09.332Z,688.42
2023-04-20T21:30:35.832Z,665.10
2023-04-20T21:33:02.386Z,636.85
2023-04-20T21:35:28.954Z,623.20
2023-04-20T21:37:55.733Z,596.63
2023-04-20T21:40:22.203Z,640.60
2023-04-20T21:42:48.704Z,713.90
2023-04-20T21:45:15.130Z,746.22
2023-04-20T21:47:41.861Z,704.70
2023-04-20T21:50:08.427Z,703.95
2023-04-20T21:52:35.367Z,904.45
2023-04-20T21:55:01.911Z,848.60
2023-04-20T21:57:29.148Z,758.92
2023-04-20T21:59:55.544Z,745.70
2023-04-20T22:02:22.331Z,746.30
2023-04-20T22:04:49.325Z,736.97
2023-04-20T22:07:18.215Z,732.92
2023-04-20T22:09:44.636Z,720.58
2023-04-20T22:12:11.059Z,725.28
2023-04-20T22:14:37.424Z,713.25
2023-04-20T22:17:04.259Z,708.03
2023-04-20T22:19:30.641Z,707.72
2023-04-20T22:21:57.043Z,701.08
2023-04-20T22:24:23.598Z,696.83
2023-04-20T22:26:50.084Z,684.65
2023-04-20T22:29:16.993Z,679.92
2023-04-20T22:31:43.944Z,682.67
2023-04-20T22:34:10.433Z,676.97
2023-04-20T22:36:36.900Z,669.92
2023-04-20T22:39:04.837Z,675.95
2023-04-20T22:41:31.210Z,665.45
2023-04-20T22:43:57.582Z,663.15
2023-04-20T22:46:24.019Z,657.08
2023-04-20T22:48:50.503Z,664.85
2023-04-20T22:51:16.899Z,660.72
2023-04-20T22:53:43.416Z,646.42
2023-04-20T22:56:10.089Z,634.15
2023-04-20T22:58:36.509Z,638.08
2023-04-20T23:01:03.293Z,637.58
2023-04-20T23:03:29.956Z,643.10
2023-04-20T23:05:56.601Z,625.67
2023-04-20T23:08:23.102Z,626.97
2023-04-20T23:10:49.538Z,621.90
2023-04-20T23:13:16.231Z,612.00
2023-04-20T23:15:42.877Z,605.13
2023-04-20T23:18:09.309Z,605.85
2023-04-20T23:20:35.820Z,596.28
2023-04-20T23:23:02.233Z,601.13
2023-04-20T23:25:28.744Z,597.83
2023-04-20T23:27:55.199Z,591.55
2023-04-20T23:30:21.783Z,583.53
2023-04-20T23:32:48.272Z,571.17
2023-04-20T23:35:14.736Z,583.03
2023-04-20T23:37:41.098Z,568.30
2023-04-20T23:40:07.800Z,567.83
2023-04-20T23:42:34.251Z,569.65
2023-04-20T23:45:00.733Z,560.92
2023-04-20T23:47:27.501Z,563.47
2023-04-20T23:49:53.942Z,551.13
2023-04-20T23:52:20.418Z,546.65
2023-04-20T23:54:46.858Z,549.17
2023-04-20T23:57:13.535Z,555.42
2023-04-20T23:59:40.188Z,537.70
